createdAt,value
2022-11-06T00:00:16.385Z,8.70
2022-11-06T00:02:57.683Z,8.67
2022-11-06T00:05:43.349Z,8.65
2022-11-06T00:08:10.449Z,8.67
2022-11-06T00:10:37.672Z,8.67
2022-11-06T00:13:04.271Z,8.67
2022-11-06T00:15:32.242Z,8.66
2022-11-06T00:17:58.860Z,8.67
2022-11-06T00:20:25.784Z,8.65
2022-11-06T00:22:52.453Z,8.65
2022-11-06T00:25:19.369Z,8.65
2022-11-06T00:27:46.063Z,8.64
2022-11-06T00:30:13.040Z,8.64
2022-11-06T00:32:39.964Z,8.64
2022-11-06T00:35:07.415Z,8.61
2022-11-06T00:37:34.257Z,8.62
2022-11-06T00:40:01.344Z,8.62
2022-11-06T00:42:28.030Z,8.61
2022-11-06T00:44:54.941Z,8.62
2022-11-06T00:47:21.593Z,8.64
2022-11-06T00:49:48.602Z,8.64
2022-11-06T00:52:15.304Z,8.63
2022-11-06T00:54:42.250Z,8.65
2022-11-06T00:57:08.909Z,8.64
2022-11-06T00:59:35.917Z,8.62
2022-11-06T01:02:02.745Z,8.64
2022-11-06T01:04:30.005Z,8.62
2022-11-06T01:06:56.999Z,8.63
2022-11-06T01:09:25.319Z,8.60
2022-11-06T01:12:12.354Z,8.60
2022-11-06T01:14:40.453Z,8.60
2022-11-06T01:17:07.250Z,8.61
2022-11-06T01:19:34.184Z,8.61
2022-11-06T01:22:00.860Z,8.62
2022-11-06T01:24:28.738Z,8.60
2022-11-06T01:27:25.016Z,8.61
2022-11-06T01:29:42.915Z,8.62
2022-11-06T01:32:09.543Z,8.59
2022-11-06T01:34:36.491Z,8.62
2022-11-06T01:37:03.300Z,8.62
2022-11-06T01:39:30.445Z,8.61
2022-11-06T01:41:57.307Z,8.63
2022-11-06T01:44:33.386Z,8.60
2022-11-06T01:47:00.973Z,8.60
2022-11-06T01:49:28.802Z,8.58
2022-11-06T01:51:57.643Z,8.59
2022-11-06T01:54:27.388Z,8.58
2022-11-06T01:56:55.390Z,8.58
2022-11-06T01:59:24.077Z,8.58
2022-11-06T02:01:51.335Z,8.60
2022-11-06T02:04:21.095Z,8.60
2022-11-06T02:06:48.043Z,8.61
2022-11-06T02:09:15.620Z,8.62
2022-11-06T02:11:43.492Z,8.63
2022-11-06T02:14:13.546Z,8.62
2022-11-06T02:16:54.696Z,8.61
2022-11-06T02:19:24.482Z,8.61
2022-11-06T02:22:05.965Z,8.62
2022-11-06T02:25:06.177Z,8.61
2022-11-06T02:27:33.987Z,8.59
2022-11-06T02:30:08.243Z,8.60
2022-11-06T02:32:53.135Z,8.60
2022-11-06T02:35:26.913Z,8.59
2022-11-06T02:37:57.563Z,8.60
2022-11-06T02:43:14.455Z,8.60
2022-11-06T02:45:59.493Z,8.58
2022-11-06T02:48:30.101Z,8.57
2022-11-06T02:50:59.031Z,8.55
2022-11-06T02:53:26.522Z,8.56
2022-11-06T02:55:56.525Z,8.56
2022-11-06T02:58:23.208Z,8.53
2022-11-06T03:00:52.831Z,8.53
2022-11-06T03:03:19.436Z,8.53
2022-11-06T03:06:07.606Z,8.49
2022-11-06T03:08:39.591Z,8.50
2022-11-06T03:11:12.732Z,8.51
2022-11-06T03:13:48.210Z,8.53
2022-11-06T03:16:33.556Z,8.50
2022-11-06T03:19:04.017Z,8.50
2022-11-06T03:21:48.938Z,8.51
2022-11-06T03:24:26.940Z,8.51
2022-11-06T03:26:58.944Z,8.51
2022-11-06T03:29:34.709Z,8.49
2022-11-06T03:32:05.614Z,8.51
2022-11-06T03:34:36.708Z,8.51
2022-11-06T03:37:11.475Z,8.52
2022-11-06T03:39:40.171Z,8.53
2022-11-06T03:42:10.939Z,8.51
2022-11-06T03:44:40.815Z,8.51
2022-11-06T03:47:11.721Z,8.48
2022-11-06T03:49:44.010Z,8.48
2022-11-06T03:52:13.478Z,8.47
2022-11-06T03:54:44.332Z,8.47
2022-11-06T03:57:13.321Z,8.45
2022-11-06T03:59:44.220Z,8.43
2022-11-06T04:02:13.022Z,8.42
2022-11-06T04:04:49.057Z,8.41
2022-11-06T04:07:24.815Z,8.41
2022-11-06T04:10:12.366Z,8.42
2022-11-06T04:13:00.883Z,8.42
2022-11-06T04:15:31.468Z,8.39
2022-11-06T04:17:58.418Z,8.38
2022-11-06T04:20:47.955Z,8.36
2022-11-06T04:23:32.285Z,8.33
2022-11-06T04:26:36.170Z,8.31
2022-11-06T04:29:08.901Z,8.29
2022-11-06T04:31:53.891Z,8.27
2022-11-06T04:34:29.912Z,8.27
2022-11-06T04:37:02.367Z,8.28
2022-11-06T04:39:32.595Z,8.29
2022-11-06T04:42:16.644Z,8.29
2022-11-06T04:44:45.911Z,8.30
2022-11-06T04:47:17.682Z,8.30
2022-11-06T04:49:45.727Z,8.30
2022-11-06T04:52:16.095Z,8.30
2022-11-06T04:54:44.488Z,8.29
2022-11-06T04:57:11.189Z,8.30
2022-11-06T04:59:38.465Z,8.29
2022-11-06T05:02:05.881Z,8.27
2022-11-06T05:04:33.875Z,8.24
2022-11-06T05:07:00.847Z,8.25
2022-11-06T05:09:27.819Z,8.24
2022-11-06T05:11:54.454Z,8.23
2022-11-06T05:14:21.657Z,8.23
2022-11-06T05:16:48.604Z,8.22
2022-11-06T05:19:15.577Z,8.25
2022-11-06T05:22:00.640Z,8.26
2022-11-06T05:24:27.563Z,8.25
2022-11-06T05:26:59.086Z,8.24
2022-11-06T05:29:26.871Z,8.25
2022-11-06T05:31:53.544Z,8.25
2022-11-06T05:34:20.939Z,8.25
2022-11-06T05:36:47.592Z,8.25
2022-11-06T05:39:14.506Z,8.24
2022-11-06T05:41:41.147Z,8.23
2022-11-06T05:44:08.180Z,8.25
2022-11-06T05:46:48.134Z,8.24
2022-11-06T05:49:16.290Z,8.23
2022-11-06T05:51:43.041Z,8.24
2022-11-06T05:54:10.024Z,8.23
2022-11-06T05:56:36.680Z,8.25
2022-11-06T05:59:03.622Z,8.24
2022-11-06T06:01:30.583Z,8.26
2022-11-06T06:03:57.645Z,8.30
2022-11-06T06:06:24.436Z,8.32
2022-11-06T06:08:51.396Z,8.33
2022-11-06T06:11:18.031Z,8.35
2022-11-06T06:13:45.086Z,8.36
2022-11-06T06:16:11.821Z,8.34
2022-11-06T06:18:38.768Z,8.37
2022-11-06T06:21:05.495Z,8.36
2022-11-06T06:23:32.843Z,8.36
2022-11-06T06:25:59.596Z,8.35
2022-11-06T06:28:27.010Z,8.36
2022-11-06T06:30:58.609Z,8.37
2022-11-06T06:33:28.157Z,8.41
2022-11-06T06:35:54.853Z,8.42
2022-11-06T06:38:21.807Z,8.41
2022-11-06T06:40:48.438Z,8.40
2022-11-06T06:43:15.343Z,8.40
2022-11-06T06:45:42.017Z,8.44
2022-11-06T06:48:09.458Z,8.44
2022-11-06T06:50:36.141Z,8.44
2022-11-06T06:53:03.943Z,8.45
2022-11-06T06:55:30.634Z,8.47
2022-11-06T06:57:59.112Z,8.51
2022-11-06T07:00:25.858Z,8.51
2022-11-06T07:02:52.889Z,8.51
2022-11-06T07:05:19.776Z,8.55
2022-11-06T07:07:46.872Z,8.58
2022-11-06T07:10:13.515Z,8.60
2022-11-06T07:12:40.465Z,8.63
2022-11-06T07:15:07.960Z,8.65
2022-11-06T07:17:34.873Z,8.67
2022-11-06T07:20:01.598Z,8.70
2022-11-06T07:22:36.629Z,8.75
2022-11-06T07:25:04.289Z,8.79
2022-11-06T07:27:31.313Z,8.78
2022-11-06T07:29:58.041Z,8.79
2022-11-06T07:32:24.941Z,8.80
2022-11-06T07:34:51.571Z,8.83
2022-11-06T07:37:18.494Z,8.85
2022-11-06T07:39:45.145Z,8.89
2022-11-06T07:42:12.043Z,8.93
2022-11-06T07:44:38.683Z,8.94
2022-11-06T07:47:05.629Z,8.99
2022-11-06T07:49:32.284Z,8.99
2022-11-06T07:51:59.267Z,8.99
2022-11-06T07:54:26.006Z,8.97
2022-11-06T07:56:53.233Z,8.96
2022-11-06T07:59:19.872Z,8.94
2022-11-06T08:01:46.894Z,9.00
2022-11-06T08:04:13.613Z,9.06
2022-11-06T08:06:40.544Z,9.14
2022-11-06T08:09:07.713Z,9.23
2022-11-06T08:11:34.788Z,9.30
2022-11-06T08:14:01.613Z,9.37
2022-11-06T08:16:28.640Z,9.44
2022-11-06T08:18:55.696Z,9.51
2022-11-06T08:21:22.632Z,9.54
2022-11-06T08:23:49.233Z,9.58
2022-11-06T08:26:16.480Z,9.64
2022-11-06T08:28:43.349Z,9.69
2022-11-06T08:31:10.582Z,9.77
2022-11-06T08:33:37.813Z,9.82
2022-11-06T08:36:05.396Z,9.79
2022-11-06T08:38:32.012Z,9.81
2022-11-06T08:40:58.946Z,9.84
2022-11-06T08:43:26.721Z,9.86
2022-11-06T08:45:54.024Z,9.92
2022-11-06T08:48:20.865Z,9.94
2022-11-06T08:50:47.912Z,9.97
2022-11-06T08:53:14.920Z,9.98
2022-11-06T08:55:42.464Z,9.98
2022-11-06T08:58:09.170Z,9.99
2022-11-06T09:00:36.470Z,9.97
2022-11-06T09:03:07.462Z,9.95
2022-11-06T09:05:34.422Z,9.94
2022-11-06T09:08:01.155Z,9.96
2022-11-06T09:10:28.645Z,10.01
2022-11-06T09:12:57.837Z,10.08
2022-11-06T09:15:24.783Z,10.12
2022-11-06T09:17:51.845Z,10.16
2022-11-06T09:20:20.159Z,10.16
2022-11-06T09:22:47.186Z,10.14
2022-11-06T09:25:14.181Z,10.16
2022-11-06T09:27:48.357Z,10.16
2022-11-06T09:30:16.852Z,10.18
2022-11-06T09:33:02.314Z,10.20
2022-11-06T09:35:31.854Z,10.23
2022-11-06T09:38:05.759Z,10.22
2022-11-06T09:40:51.222Z,10.22
2022-11-06T09:44:26.104Z,10.19
2022-11-06T09:46:16.874Z,10.18
2022-11-06T09:48:45.505Z,10.16
2022-11-06T09:51:19.444Z,10.15
2022-11-06T09:53:51.700Z,10.17
2022-11-06T09:56:21.834Z,10.16
2022-11-06T09:58:49.718Z,10.16
2022-11-06T10:01:26.872Z,10.19
2022-11-06T10:03:59.012Z,10.23
2022-11-06T10:06:27.323Z,10.27
2022-11-06T10:08:55.868Z,10.28
2022-11-06T10:11:22.805Z,10.33
2022-11-06T10:13:58.346Z,10.43
2022-11-06T10:16:47.175Z,10.56
2022-11-06T10:19:16.917Z,10.71
2022-11-06T10:21:50.800Z,10.84
2022-11-06T10:24:33.748Z,10.97
2022-11-06T10:27:04.742Z,11.07
2022-11-06T10:29:45.535Z,11.14
2022-11-06T10:32:27.495Z,11.21
2022-11-06T10:35:03.472Z,11.28
2022-11-06T10:37:32.977Z,11.35
2022-11-06T10:40:00.115Z,11.48
2022-11-06T10:42:37.583Z,11.64
2022-11-06T10:45:10.814Z,11.84
2022-11-06T10:47:48.565Z,12.02
2022-11-06T10:50:16.735Z,12.15
2022-11-06T10:53:22.136Z,12.24
2022-11-06T10:55:58.919Z,12.25
2022-11-06T10:58:30.361Z,12.24
2022-11-06T11:01:00.075Z,12.20
2022-11-06T11:03:33.892Z,12.13
2022-11-06T11:06:01.830Z,12.11
2022-11-06T11:08:28.786Z,12.06
2022-11-06T11:11:13.582Z,11.98
2022-11-06T11:13:40.997Z,11.91
2022-11-06T11:16:24.427Z,11.83
2022-11-06T11:18:51.807Z,11.77
2022-11-06T11:21:18.455Z,11.73
2022-11-06T11:24:05.674Z,11.63
2022-11-06T11:26:33.808Z,11.62
2022-11-06T11:29:12.750Z,11.65
2022-11-06T11:31:39.691Z,11.69
2022-11-06T11:34:14.697Z,11.79
2022-11-06T11:36:51.468Z,11.92
2022-11-06T11:39:19.867Z,12.04
2022-11-06T11:41:46.576Z,12.19
2022-11-06T11:44:13.475Z,12.28
2022-11-06T11:46:51.300Z,12.35
2022-11-06T11:49:31.778Z,12.36
2022-11-06T11:51:59.661Z,12.31
2022-11-06T11:54:28.647Z,12.27
2022-11-06T11:57:05.110Z,12.26
2022-11-06T11:59:53.100Z,12.25
2022-11-06T12:02:29.760Z,12.19
2022-11-06T12:04:58.961Z,12.20
2022-11-06T12:07:30.658Z,12.20
2022-11-06T12:09:58.797Z,12.20
2022-11-06T12:12:31.209Z,12.20
2022-11-06T12:15:03.712Z,12.20
2022-11-06T12:17:31.330Z,12.16
2022-11-06T12:19:59.145Z,12.13
2022-11-06T12:22:34.745Z,12.12
2022-11-06T12:25:11.012Z,12.09
2022-11-06T12:27:41.292Z,12.13
2022-11-06T12:30:08.793Z,12.14
2022-11-06T12:32:45.677Z,12.12
2022-11-06T12:35:22.852Z,12.05
2022-11-06T12:38:09.079Z,11.99
2022-11-06T12:40:39.000Z,11.92
2022-11-06T12:43:20.002Z,11.84
2022-11-06T12:45:46.656Z,11.74
2022-11-06T12:48:36.853Z,11.60
2022-11-06T12:51:03.448Z,11.48
2022-11-06T12:53:47.353Z,11.39
2022-11-06T12:56:14.035Z,11.31
2022-11-06T12:58:50.694Z,11.27
2022-11-06T13:01:24.438Z,11.22
2022-11-06T13:03:57.504Z,11.18
2022-11-06T13:06:43.087Z,11.13
2022-11-06T13:09:30.255Z,11.11
2022-11-06T13:12:20.314Z,11.10
2022-11-06T13:15:07.725Z,11.11
2022-11-06T13:17:44.222Z,11.09
2022-11-06T13:20:17.072Z,11.06
2022-11-06T13:23:02.429Z,11.06
2022-11-06T13:25:39.643Z,11.05
2022-11-06T13:28:15.913Z,11.02
2022-11-06T13:30:43.779Z,11.02
2022-11-06T13:33:10.368Z,11.01
2022-11-06T13:35:39.277Z,10.99
2022-11-06T13:38:07.420Z,10.95
2022-11-06T13:40:40.560Z,10.88
2022-11-06T13:43:15.127Z,10.87
2022-11-06T13:45:45.854Z,10.85
2022-11-06T13:48:29.176Z,10.84
2022-11-06T13:51:18.081Z,10.80
2022-11-06T13:53:48.999Z,10.76
2022-11-06T13:56:31.992Z,10.72
2022-11-06T13:59:20.021Z,10.67
2022-11-06T14:02:17.153Z,10.63
2022-11-06T14:05:03.234Z,10.58
2022-11-06T14:07:30.824Z,10.55
2022-11-06T14:09:57.935Z,10.51
2022-11-06T14:12:24.936Z,10.46
2022-11-06T14:15:11.525Z,10.43
2022-11-06T14:17:38.490Z,10.37
2022-11-06T14:20:07.423Z,10.34
2022-11-06T14:22:38.466Z,10.32
2022-11-06T14:25:23.967Z,10.27
2022-11-06T14:27:50.859Z,10.24
2022-11-06T14:31:10.389Z,10.21
2022-11-06T14:33:48.123Z,10.18
2022-11-06T14:36:23.861Z,10.14
2022-11-06T14:38:51.369Z,10.10
2022-11-06T14:41:42.198Z,10.09
2022-11-06T14:44:20.774Z,10.06
2022-11-06T14:46:52.096Z,10.02
2022-11-06T14:49:28.416Z,9.98
2022-11-06T14:52:21.564Z,9.95
2022-11-06T14:54:51.332Z,9.92
2022-11-06T14:57:33.742Z,9.88
2022-11-06T15:00:00.610Z,9.85
2022-11-06T15:02:29.547Z,9.82
2022-11-06T15:05:05.163Z,9.79
2022-11-06T15:08:03.319Z,9.75
2022-11-06T15:10:56.337Z,9.73
2022-11-06T15:13:25.585Z,9.68
2022-11-06T15:16:03.576Z,9.67
2022-11-06T15:18:33.034Z,9.64
2022-11-06T15:21:04.911Z,9.62
2022-11-06T15:23:40.779Z,9.62
2022-11-06T15:26:27.449Z,9.62
2022-11-06T15:29:18.040Z,9.60
2022-11-06T15:31:49.211Z,9.56
2022-11-06T15:34:20.148Z,9.55
2022-11-06T15:36:49.405Z,9.54
2022-11-06T15:39:34.941Z,9.51
2022-11-06T15:42:01.661Z,9.50
2022-11-06T15:44:28.872Z,9.49
2022-11-06T15:46:59.117Z,9.48
2022-11-06T15:49:26.185Z,9.44
2022-11-06T15:51:54.494Z,9.43
2022-11-06T15:54:38.145Z,9.42
2022-11-06T15:57:25.086Z,9.39
2022-11-06T16:00:07.559Z,9.37
2022-11-06T16:02:34.589Z,9.36
2022-11-06T16:05:01.739Z,9.36
2022-11-06T16:07:29.463Z,9.35
2022-11-06T16:09:56.396Z,9.36
2022-11-06T16:12:23.131Z,9.36
2022-11-06T16:14:50.086Z,9.36
2022-11-06T16:17:18.973Z,9.37
2022-11-06T16:19:47.646Z,9.37
2022-11-06T16:22:16.442Z,9.37
2022-11-06T16:24:46.445Z,9.32
2022-11-06T16:27:13.663Z,9.27
2022-11-06T16:29:45.817Z,9.23
2022-11-06T16:32:17.920Z,9.21
2022-11-06T16:34:46.119Z,9.18
2022-11-06T16:37:15.817Z,9.16
2022-11-06T16:39:50.923Z,9.14
2022-11-06T16:42:33.010Z,9.13
2022-11-06T16:44:59.685Z,9.11
2022-11-06T16:47:29.709Z,9.10
2022-11-06T16:49:57.292Z,9.10
2022-11-06T16:52:34.444Z,9.11
2022-11-06T16:55:01.316Z,9.08
2022-11-06T16:57:30.062Z,9.08
2022-11-06T16:59:59.192Z,9.04
2022-11-06T17:02:28.075Z,9.00
2022-11-06T17:05:12.265Z,9.00
2022-11-06T17:07:39.913Z,9.02
2022-11-06T17:10:25.224Z,9.02
2022-11-06T17:12:52.178Z,8.99
2022-11-06T17:15:19.455Z,8.99
2022-11-06T17:17:46.394Z,8.96
2022-11-06T17:20:17.521Z,8.95
2022-11-06T17:22:44.854Z,8.97
2022-11-06T17:25:11.505Z,8.97
2022-11-06T17:27:38.444Z,8.95
2022-11-06T17:30:05.253Z,8.95
2022-11-06T17:32:32.206Z,8.96
2022-11-06T17:34:58.901Z,8.97
2022-11-06T17:37:25.963Z,8.97
2022-11-06T17:39:52.771Z,9.00
2022-11-06T17:42:19.681Z,8.99
2022-11-06T17:44:46.308Z,9.01
2022-11-06T17:47:13.260Z,9.00
2022-11-06T17:49:39.940Z,9.01
2022-11-06T17:52:06.910Z,9.03
2022-11-06T17:54:34.003Z,9.04
2022-11-06T17:57:02.142Z,9.05
2022-11-06T17:59:28.904Z,9.05
2022-11-06T18:01:56.329Z,9.01
2022-11-06T18:04:23.814Z,9.05
2022-11-06T18:06:52.288Z,9.01
2022-11-06T18:09:19.559Z,9.01
2022-11-06T18:11:49.384Z,9.00
2022-11-06T18:14:16.135Z,9.02
2022-11-06T18:16:44.140Z,9.00
2022-11-06T18:19:12.436Z,9.00
2022-11-06T18:21:39.329Z,8.99
2022-11-06T18:24:06.159Z,9.00
2022-11-06T18:26:33.130Z,9.01
2022-11-06T18:29:00.125Z,9.03
2022-11-06T18:31:27.077Z,9.06
2022-11-06T18:33:53.736Z,9.06
2022-11-06T18:36:20.655Z,9.06
2022-11-06T18:38:47.714Z,9.05
2022-11-06T18:41:16.127Z,9.07
2022-11-06T18:43:42.771Z,9.07
2022-11-06T18:46:14.019Z,9.08
2022-11-06T18:48:41.221Z,9.09
2022-11-06T18:51:09.533Z,9.09
2022-11-06T18:53:36.379Z,9.08
2022-11-06T18:56:03.477Z,9.08
2022-11-06T18:58:30.149Z,9.08
2022-11-06T19:01:01.637Z,9.09
2022-11-06T19:03:28.797Z,9.10
2022-11-06T19:05:55.919Z,9.11
2022-11-06T19:08:22.580Z,9.11
2022-11-06T19:10:49.516Z,9.10
2022-11-06T19:13:17.418Z,9.09
2022-11-06T19:15:45.065Z,9.07
2022-11-06T19:18:12.779Z,9.02
2022-11-06T19:20:40.941Z,9.03
2022-11-06T19:23:07.825Z,9.02
2022-11-06T19:25:34.767Z,9.02
2022-11-06T19:28:03.019Z,9.03
2022-11-06T19:30:30.298Z,9.01
2022-11-06T19:32:56.977Z,8.97
2022-11-06T19:35:24.060Z,8.98
2022-11-06T19:37:50.760Z,9.01
2022-11-06T19:40:17.729Z,9.01
2022-11-06T19:42:44.381Z,9.00
2022-11-06T19:45:11.318Z,9.00
2022-11-06T19:47:39.289Z,8.99
2022-11-06T19:50:06.611Z,8.98
2022-11-06T19:52:41.966Z,8.99
2022-11-06T19:55:26.838Z,9.00
2022-11-06T19:57:57.231Z,9.00
2022-11-06T20:00:24.155Z,9.01
2022-11-06T20:02:51.150Z,9.02
2022-11-06T20:05:18.236Z,9.05
2022-11-06T20:07:44.937Z,9.05
2022-11-06T20:10:11.864Z,9.07
2022-11-06T20:12:38.495Z,9.05
2022-11-06T20:15:05.654Z,9.03
2022-11-06T20:17:33.471Z,9.03
2022-11-06T20:20:00.380Z,9.01
2022-11-06T20:22:27.377Z,9.00
2022-11-06T20:24:54.335Z,9.01
2022-11-06T20:27:21.003Z,9.00
2022-11-06T20:29:47.911Z,8.99
2022-11-06T20:32:18.827Z,8.98
2022-11-06T20:34:46.293Z,8.98
2022-11-06T20:37:13.074Z,8.99
2022-11-06T20:39:41.675Z,8.98
2022-11-06T20:42:08.356Z,8.98
2022-11-06T20:44:35.281Z,8.95
2022-11-06T20:47:01.983Z,8.96
2022-11-06T20:49:28.895Z,8.95
2022-11-06T20:52:13.202Z,8.94
2022-11-06T20:54:46.374Z,8.91
2022-11-06T20:57:14.842Z,8.90
2022-11-06T20:59:41.909Z,8.89
2022-11-06T21:02:10.919Z,8.89
2022-11-06T21:04:38.151Z,8.88
2022-11-06T21:07:04.823Z,8.87
2022-11-06T21:09:31.841Z,8.85
2022-11-06T21:11:58.477Z,8.84
2022-11-06T21:14:25.472Z,8.84
2022-11-06T21:16:53.228Z,8.80
2022-11-06T21:19:20.222Z,8.76
2022-11-06T21:21:47.122Z,8.72
2022-11-06T21:24:14.072Z,8.67
2022-11-06T21:26:40.774Z,8.67
2022-11-06T21:29:09.114Z,8.65
2022-11-06T21:31:35.816Z,8.63
2022-11-06T21:34:03.282Z,8.62
2022-11-06T21:36:31.314Z,8.59
2022-11-06T21:38:59.972Z,8.57
2022-11-06T21:41:27.408Z,8.56
2022-11-06T21:43:54.364Z,8.56
2022-11-06T21:46:22.106Z,8.52
2022-11-06T21:48:49.653Z,8.53
2022-11-06T21:51:22.741Z,8.53
2022-11-06T21:54:08.949Z,8.53
2022-11-06T21:56:35.876Z,8.51
2022-11-06T21:59:03.864Z,8.49
2022-11-06T22:01:30.719Z,8.48
2022-11-06T22:03:58.171Z,8.47
2022-11-06T22:06:25.979Z,8.44
2022-11-06T22:08:54.036Z,8.44
2022-11-06T22:11:25.090Z,8.46
2022-11-06T22:13:52.624Z,8.43
2022-11-06T22:16:21.594Z,8.45
2022-11-06T22:18:48.753Z,8.45
2022-11-06T22:21:25.637Z,8.45
2022-11-06T22:23:53.107Z,8.44
2022-11-06T22:26:21.204Z,8.47
2022-11-06T22:28:48.537Z,8.49
2022-11-06T22:31:15.206Z,8.50
2022-11-06T22:33:42.176Z,8.50
2022-11-06T22:36:13.354Z,8.49
2022-11-06T22:38:41.896Z,8.44
2022-11-06T22:41:10.783Z,8.43
2022-11-06T22:43:37.707Z,8.43
2022-11-06T22:46:05.780Z,8.43
2022-11-06T22:48:33.310Z,8.41
2022-11-06T22:51:07.722Z,8.37
2022-11-06T22:53:35.128Z,8.38
2022-11-06T22:56:01.817Z,8.35
2022-11-06T22:58:29.258Z,8.33
2022-11-06T23:00:56.893Z,8.34
2022-11-06T23:03:24.700Z,8.36
2022-11-06T23:05:51.696Z,8.37
2022-11-06T23:08:18.611Z,8.37
2022-11-06T23:10:45.622Z,8.40
2022-11-06T23:13:12.605Z,8.39
2022-11-06T23:15:40.807Z,8.38
2022-11-06T23:18:07.474Z,8.40
2022-11-06T23:20:34.745Z,8.38
2022-11-06T23:23:02.036Z,8.40
2022-11-06T23:25:29.314Z,8.41
2022-11-06T23:27:56.393Z,8.40
2022-11-06T23:30:23.341Z,8.40
2022-11-06T23:32:50.811Z,8.40
2022-11-06T23:35:19.485Z,8.40
2022-11-06T23:37:47.781Z,8.39
2022-11-06T23:40:14.754Z,8.40
2022-11-06T23:42:43.304Z,8.41
2022-11-06T23:45:30.130Z,8.40
2022-11-06T23:47:56.999Z,8.45
2022-11-06T23:50:23.949Z,8.44
2022-11-06T23:52:50.575Z,8.43
2022-11-06T23:55:17.698Z,8.42
2022-11-06T23:57:44.410Z,8.45
